createdAt,value
2023-10-15T00:01:06.040Z,100.00
2023-10-15T00:05:27.486Z,100.00
2023-10-15T00:09:31.274Z,100.00
2023-10-15T00:13:32.696Z,99.55
2023-10-15T00:17:35.818Z,97.79
2023-10-15T00:21:38.672Z,96.81
2023-10-15T00:25:47.789Z,96.09
2023-10-15T00:29:49.264Z,96.44
2023-10-15T00:33:50.979Z,96.93
2023-10-15T00:37:55.384Z,97.37
2023-10-15T00:42:03.290Z,97.55
2023-10-15T00:46:10.767Z,98.27
2023-10-15T00:50:17.614Z,98.64
2023-10-15T00:54:19.706Z,99.19
2023-10-15T00:58:48.666Z,99.59
2023-10-15T01:02:52.522Z,99.24
2023-10-15T01:06:58.177Z,99.52
2023-10-15T01:11:30.472Z,99.90
2023-10-15T01:15:36.242Z,100.00
2023-10-15T01:19:47.864Z,99.91
2023-10-15T01:24:04.802Z,99.92
2023-10-15T01:28:07.336Z,99.98
2023-10-15T01:32:23.123Z,99.85
2023-10-15T01:36:30.781Z,99.77
2023-10-15T01:40:52.577Z,99.22
2023-10-15T01:45:16.558Z,99.57
2023-10-15T01:49:33.077Z,99.27
2023-10-15T01:53:38.251Z,99.51
2023-10-15T01:57:41.390Z,99.43
2023-10-15T02:01:49.987Z,99.25
2023-10-15T02:06:20.399Z,99.32
2023-10-15T02:10:21.956Z,99.04
2023-10-15T02:14:28.001Z,99.00
2023-10-15T02:18:31.730Z,99.56
2023-10-15T02:22:38.737Z,99.89
2023-10-15T02:26:45.340Z,100.00
2023-10-15T02:30:49.291Z,100.00
2023-10-15T02:34:51.296Z,100.00
2023-10-15T02:51:42.303Z,100.00
2023-10-15T02:55:48.258Z,100.00
2023-10-15T02:59:53.391Z,100.00
2023-10-15T03:03:56.896Z,100.00
2023-10-15T03:08:00.411Z,100.00
2023-10-15T03:12:04.879Z,100.00
2023-10-15T03:16:07.946Z,100.00
2023-10-15T03:20:18.989Z,100.00
2023-10-15T03:24:20.985Z,100.00
2023-10-15T03:28:24.588Z,100.00
2023-10-15T03:32:32.125Z,100.00
2023-10-15T03:37:03.916Z,100.00
2023-10-15T03:41:11.950Z,100.00
2023-10-15T03:45:26.719Z,100.00
2023-10-15T03:49:28.694Z,100.00
2023-10-15T03:53:32.816Z,100.00
2023-10-15T03:57:35.603Z,100.00
2023-10-15T04:01:39.469Z,100.00
2023-10-15T04:05:43.448Z,100.00
2023-10-15T04:09:45.304Z,100.00
2023-10-15T04:13:47.215Z,100.00
2023-10-15T04:17:49.512Z,100.00
2023-10-15T04:21:53.784Z,100.00
2023-10-15T04:25:56.055Z,100.00
2023-10-15T04:30:00.847Z,100.00
2023-10-15T04:34:02.673Z,100.00
2023-10-15T04:38:08.614Z,100.00
2023-10-15T04:42:13.853Z,100.00
2023-10-15T04:46:18.747Z,100.00
2023-10-15T04:50:21.926Z,100.00
2023-10-15T04:54:24.815Z,100.00
2023-10-15T04:58:30.415Z,100.00
2023-10-15T05:02:32.216Z,100.00
2023-10-15T05:06:33.987Z,100.00
2023-10-15T05:10:36.490Z,100.00
2023-10-15T05:14:39.652Z,100.00
2023-10-15T05:18:43.982Z,100.00
2023-10-15T05:22:46.527Z,100.00
2023-10-15T05:26:49.413Z,100.00
2023-10-15T05:30:51.177Z,100.00
2023-10-15T05:34:53.421Z,100.00
2023-10-15T05:38:55.458Z,100.00
2023-10-15T05:42:57.719Z,100.00
2023-10-15T05:46:59.790Z,100.00
2023-10-15T05:51:04.103Z,100.00
2023-10-15T05:55:07.242Z,100.00
2023-10-15T05:59:09.512Z,100.00
2023-10-15T06:03:11.858Z,100.00
2023-10-15T06:07:14.952Z,100.00
2023-10-15T06:11:16.964Z,99.61
2023-10-15T06:15:22.046Z,99.62
2023-10-15T06:19:26.809Z,99.25
2023-10-15T06:23:29.052Z,98.32
2023-10-15T06:27:31.038Z,97.58
2023-10-15T06:31:32.882Z,96.60
2023-10-15T06:35:35.354Z,95.80
2023-10-15T06:39:37.104Z,94.03
2023-10-15T06:43:39.132Z,95.05
2023-10-15T06:47:41.073Z,94.74
2023-10-15T06:51:43.009Z,93.54
2023-10-15T06:55:46.564Z,94.27
2023-10-15T06:59:50.901Z,94.01
2023-10-15T07:03:53.002Z,93.41
2023-10-15T07:08:00.203Z,91.98
2023-10-15T07:12:03.390Z,91.76
2023-10-15T07:16:06.673Z,92.47
2023-10-15T07:20:14.888Z,91.68
2023-10-15T07:24:16.932Z,90.55
2023-10-15T07:28:18.870Z,90.48
2023-10-15T07:32:20.988Z,89.95
2023-10-15T07:36:41.004Z,89.86
2023-10-15T07:40:42.942Z,89.03
2023-10-15T07:44:44.532Z,87.92
2023-10-15T07:48:46.221Z,87.28
2023-10-15T07:52:47.933Z,87.79
2023-10-15T07:56:50.684Z,86.44
2023-10-15T08:01:09.135Z,88.88
2023-10-15T08:05:13.881Z,87.60
2023-10-15T08:09:15.614Z,86.41
2023-10-15T08:13:19.091Z,87.46
2023-10-15T08:17:21.568Z,86.32
2023-10-15T08:21:23.276Z,87.70
2023-10-15T08:25:25.765Z,87.46
2023-10-15T08:29:27.602Z,85.79
2023-10-15T08:33:29.199Z,88.70
2023-10-15T08:37:31.059Z,89.08
2023-10-15T08:41:38.697Z,87.72
2023-10-15T08:45:44.060Z,86.53
2023-10-15T08:49:52.556Z,86.54
2023-10-15T08:53:54.290Z,85.44
2023-10-15T08:57:57.569Z,85.83
2023-10-15T09:02:00.272Z,85.00
2023-10-15T09:06:06.132Z,84.18
2023-10-15T09:10:14.322Z,84.63
2023-10-15T09:14:15.940Z,82.61
2023-10-15T09:18:18.669Z,85.08
2023-10-15T09:22:20.862Z,83.47
2023-10-15T09:26:22.527Z,80.82
2023-10-15T09:30:25.350Z,78.81
2023-10-15T09:34:27.225Z,80.19
2023-10-15T09:38:32.313Z,81.33
2023-10-15T09:42:34.388Z,79.50
2023-10-15T09:46:36.597Z,79.99
2023-10-15T09:50:42.050Z,77.06
2023-10-15T09:54:43.926Z,76.76
2023-10-15T09:58:45.813Z,76.52
2023-10-15T10:03:07.677Z,75.58
2023-10-15T10:07:27.470Z,74.73
2023-10-15T10:11:57.611Z,75.15
2023-10-15T10:16:00.397Z,74.11
2023-10-15T10:20:14.686Z,72.96
2023-10-15T10:24:17.217Z,72.17
2023-10-15T10:28:23.389Z,71.25
2023-10-15T10:32:34.020Z,70.01
2023-10-15T10:36:40.942Z,71.62
2023-10-15T10:40:48.933Z,73.79
2023-10-15T10:44:50.686Z,72.07
2023-10-15T10:49:06.720Z,72.30
2023-10-15T10:53:11.681Z,72.31
2023-10-15T10:57:20.413Z,72.64
2023-10-15T11:01:23.322Z,75.42
2023-10-15T11:05:25.138Z,78.06
2023-10-15T11:09:26.906Z,75.68
2023-10-15T11:13:29.083Z,75.01
2023-10-15T11:17:31.062Z,76.74
2023-10-15T11:21:32.897Z,76.87
2023-10-15T11:25:35.877Z,77.69
2023-10-15T11:29:37.834Z,79.50
2023-10-15T11:33:40.214Z,82.73
2023-10-15T11:37:44.870Z,81.06
2023-10-15T11:41:50.491Z,81.43
2023-10-15T11:45:57.085Z,81.92
2023-10-15T11:49:59.810Z,80.56
2023-10-15T11:54:01.926Z,83.31
2023-10-15T11:58:10.999Z,82.08
2023-10-15T12:02:12.777Z,82.17
2023-10-15T12:06:14.522Z,82.95
2023-10-15T12:10:16.182Z,81.09
2023-10-15T12:14:18.144Z,81.57
2023-10-15T12:18:19.872Z,84.05
2023-10-15T12:22:22.003Z,81.01
2023-10-15T12:26:23.650Z,78.64
2023-10-15T12:30:28.035Z,75.72
2023-10-15T12:34:30.048Z,77.88
2023-10-15T12:38:32.550Z,76.90
2023-10-15T12:42:34.472Z,75.71
2023-10-15T12:46:36.415Z,78.48
2023-10-15T12:50:38.354Z,78.84
2023-10-15T12:54:40.942Z,77.98
2023-10-15T12:58:42.524Z,80.90
2023-10-15T13:02:45.483Z,80.99
2023-10-15T13:06:47.370Z,78.73
2023-10-15T13:10:49.093Z,80.00
2023-10-15T13:14:51.356Z,80.86
2023-10-15T13:18:53.087Z,78.97
2023-10-15T13:22:55.077Z,77.61
2023-10-15T13:26:57.128Z,77.14
2023-10-15T13:30:59.042Z,76.10
2023-10-15T13:35:00.837Z,76.43
2023-10-15T13:39:03.014Z,77.06
2023-10-15T13:43:05.199Z,76.44
2023-10-15T13:47:07.021Z,76.79
2023-10-15T13:51:09.160Z,76.22
2023-10-15T13:55:13.218Z,78.89
2023-10-15T13:59:14.992Z,84.29
2023-10-15T14:03:17.030Z,85.27
2023-10-15T14:07:19.566Z,80.11
2023-10-15T14:11:21.480Z,81.71
2023-10-15T14:15:24.722Z,81.81
2023-10-15T14:19:26.378Z,80.30
2023-10-15T14:23:28.300Z,78.87
2023-10-15T14:27:29.989Z,80.57
2023-10-15T14:31:31.757Z,81.87
2023-10-15T14:35:34.632Z,82.18
2023-10-15T14:39:37.307Z,80.96
2023-10-15T14:43:38.963Z,80.81
2023-10-15T14:47:41.218Z,80.64
2023-10-15T14:51:43.125Z,81.43
2023-10-15T14:55:47.871Z,82.87
2023-10-15T14:59:52.068Z,82.86
2023-10-15T15:03:56.057Z,83.36
2023-10-15T15:07:58.105Z,85.27
2023-10-15T15:11:59.965Z,85.72
2023-10-15T15:16:03.688Z,86.86
2023-10-15T15:20:06.959Z,88.36
2023-10-15T15:24:09.955Z,91.53
2023-10-15T15:28:11.986Z,88.80
2023-10-15T15:32:13.688Z,90.52
2023-10-15T15:36:16.545Z,94.45
2023-10-15T15:40:18.311Z,96.35
2023-10-15T15:44:22.130Z,97.72
2023-10-15T15:48:28.716Z,99.61
2023-10-15T15:52:31.353Z,100.00
2023-10-15T15:56:36.119Z,99.97
2023-10-15T16:00:38.896Z,99.71
2023-10-15T16:04:41.183Z,99.20
2023-10-15T16:08:43.320Z,99.20
2023-10-15T16:12:45.029Z,98.09
2023-10-15T16:16:46.952Z,98.31
2023-10-15T16:20:51.472Z,97.08
2023-10-15T16:25:04.076Z,97.22
2023-10-15T16:29:06.119Z,97.31
2023-10-15T16:33:08.084Z,96.77
2023-10-15T16:37:09.816Z,95.95
2023-10-15T16:41:11.951Z,95.82
2023-10-15T16:45:15.391Z,95.88
2023-10-15T16:49:17.433Z,95.85
2023-10-15T16:53:19.414Z,95.97
2023-10-15T16:57:21.673Z,96.89
2023-10-15T17:01:24.292Z,97.39
2023-10-15T17:05:26.187Z,97.79
2023-10-15T17:09:28.080Z,98.68
2023-10-15T17:13:30.090Z,99.55
2023-10-15T17:17:32.300Z,99.94
2023-10-15T17:21:34.106Z,100.00
2023-10-15T17:25:39.210Z,100.00
2023-10-15T17:29:55.568Z,100.00
2023-10-15T17:34:03.496Z,100.00
2023-10-15T17:38:05.636Z,100.00
2023-10-15T17:42:10.542Z,100.00
2023-10-15T17:46:12.312Z,100.00
2023-10-15T17:50:14.097Z,100.00
2023-10-15T17:54:15.916Z,99.98
2023-10-15T17:58:18.084Z,99.29
2023-10-15T18:02:21.674Z,98.26
2023-10-15T18:06:23.742Z,98.65
2023-10-15T18:10:27.088Z,98.52
2023-10-15T18:14:29.466Z,98.55
2023-10-15T18:18:31.511Z,98.29
2023-10-15T18:22:33.190Z,98.73
2023-10-15T18:26:35.009Z,99.84
2023-10-15T18:30:37.263Z,99.88
2023-10-15T18:34:39.624Z,100.00
2023-10-15T18:38:41.458Z,100.00
2023-10-15T18:42:43.585Z,100.00
2023-10-15T18:46:45.439Z,100.00
2023-10-15T18:50:47.593Z,99.98
2023-10-15T18:54:49.370Z,100.00
2023-10-15T18:58:52.328Z,100.00
2023-10-15T19:02:54.373Z,100.00
2023-10-15T19:06:56.615Z,100.00
2023-10-15T19:10:58.320Z,100.00
2023-10-15T19:15:01.539Z,100.00
2023-10-15T19:19:03.876Z,100.00
2023-10-15T19:23:05.575Z,100.00
2023-10-15T19:27:09.335Z,100.00
2023-10-15T19:31:12.734Z,100.00
2023-10-15T19:35:15.800Z,100.00
2023-10-15T19:39:19.958Z,100.00
2023-10-15T19:43:22.086Z,100.00
2023-10-15T19:47:24.575Z,100.00
2023-10-15T19:51:26.640Z,100.00
2023-10-15T19:55:28.867Z,100.00
2023-10-15T19:59:30.549Z,100.00
2023-10-15T20:03:44.437Z,100.00
2023-10-15T20:07:57.142Z,100.00
2023-10-15T20:11:58.902Z,100.00
2023-10-15T20:16:00.483Z,100.00
2023-10-15T20:20:08.924Z,100.00
2023-10-15T20:24:11.042Z,100.00
2023-10-15T20:28:13.522Z,100.00
2023-10-15T20:32:15.965Z,100.00
2023-10-15T20:36:18.161Z,100.00
2023-10-15T20:40:21.257Z,100.00
2023-10-15T20:44:23.469Z,100.00
2023-10-15T20:48:28.234Z,100.00
2023-10-15T20:52:30.251Z,100.00
2023-10-15T20:56:32.009Z,100.00
2023-10-15T21:00:34.626Z,100.00
2023-10-15T21:04:36.527Z,100.00
2023-10-15T21:08:38.103Z,100.00
2023-10-15T21:12:44.966Z,100.00
2023-10-15T21:16:46.839Z,100.00
2023-10-15T21:20:48.658Z,100.00
2023-10-15T21:24:50.573Z,100.00
2023-10-15T21:28:52.451Z,100.00
2023-10-15T21:32:55.148Z,100.00
2023-10-15T21:37:00.026Z,100.00
2023-10-15T21:41:01.668Z,100.00
2023-10-15T21:45:03.697Z,100.00
2023-10-15T21:49:06.016Z,100.00
2023-10-15T21:53:09.083Z,100.00
2023-10-15T21:57:10.782Z,100.00
2023-10-15T22:05:17.720Z,100.00
2023-10-15T22:09:20.369Z,100.00
2023-10-15T22:13:22.921Z,100.00
2023-10-15T22:17:24.578Z,100.00
2023-10-15T22:21:27.127Z,100.00
2023-10-15T22:25:31.494Z,100.00
2023-10-15T22:29:41.128Z,100.00
2023-10-15T22:33:46.324Z,100.00
2023-10-15T22:37:48.207Z,100.00
2023-10-15T22:41:55.140Z,100.00
2023-10-15T22:45:56.809Z,100.00
2023-10-15T22:50:04.378Z,100.00
2023-10-15T22:54:07.972Z,100.00
2023-10-15T22:58:10.706Z,100.00
2023-10-15T23:02:12.461Z,100.00
2023-10-15T23:06:15.436Z,100.00
2023-10-15T23:10:17.279Z,100.00
2023-10-15T23:14:19.105Z,100.00
2023-10-15T23:18:21.212Z,100.00
2023-10-15T23:22:23.592Z,100.00
2023-10-15T23:26:26.654Z,100.00
2023-10-15T23:30:31.008Z,100.00
2023-10-15T23:34:35.887Z,100.00
2023-10-15T23:38:37.644Z,100.00
2023-10-15T23:42:40.485Z,100.00
2023-10-15T23:46:42.111Z,100.00
2023-10-15T23:50:46.088Z,100.00
2023-10-15T23:54:52.985Z,100.00
2023-10-15T23:58:57.541Z,100.00
